sensor_id;sensor_type;location;lat;lon;timestamp;pressure;altitude;pressure_sealevel;temperature;humidity
49055;BME280;35405;52.344;14.530;2023-03-23T06:15:54;99712.25;;;11.56;100.00
49055;BME280;35405;52.344;14.530;2023-03-23T06:18:22;99714.66;;;11.57;100.00
49055;BME280;35405;52.344;14.530;2023-03-23T06:20:48;99717.72;;;11.56;100.00
49055;BME280;35405;52.344;14.530;2023-03-23T06:23:13;99709.84;;;11.54;100.00
49055;BME280;35405;52.344;14.530;2023-03-23T06:25:39;99722.38;;;11.55;100.00
49055;BME280;35405;52.344;14.530;2023-03-23T06:28:04;99729.72;;;11.55;100.00
49055;BME280;35405;52.344;14.530;2023-03-23T06:30:29;99719.78;;;11.59;100.00
49055;BME280;35405;52.344;14.530;2023-03-23T06:32:55;99723.44;;;11.72;100.00
49055;BME280;35405;52.344;14.530;2023-03-23T06:35:20;99711.56;;;11.94;100.00
49055;BME280;35405;52.344;14.530;2023-03-23T06:37:46;99725.31;;;12.15;100.00
49055;BME280;35405;52.344;14.530;2023-03-23T06:40:11;99727.72;;;12.16;100.00
49055;BME280;35405;52.344;14.530;2023-03-23T06:42:37;99730.91;;;12.18;100.00
49055;BME280;35405;52.344;14.530;2023-03-23T06:45:02;99741.38;;;12.07;100.00
49055;BME280;35405;52.344;14.530;2023-03-23T06:47:28;99744.13;;;11.99;100.00
49055;BME280;35405;52.344;14.530;2023-03-23T06:49:56;99744.47;;;11.88;100.00
49055;BME280;35405;52.344;14.530;2023-03-23T06:52:22;99748.44;;;11.82;100.00
49055;BME280;35405;52.344;14.530;2023-03-23T06:54:48;99743.00;;;11.82;100.00
49055;BME280;35405;52.344;14.530;2023-03-23T06:57:13;99751.50;;;11.72;100.00
49055;BME280;35405;52.344;14.530;2023-03-23T06:59:38;99758.22;;;11.66;100.00
49055;BME280;35405;52.344;14.530;2023-03-23T07:02:03;99759.81;;;11.67;100.00
49055;BME280;35405;52.344;14.530;2023-03-23T07:04:29;99764.19;;;11.85;100.00
49055;BME280;35405;52.344;14.530;2023-03-23T07:06:55;99763.19;;;11.99;100.00
49055;BME280;35405;52.344;14.530;2023-03-23T07:09:21;99769.13;;;12.01;100.00
49055;BME280;35405;52.344;14.530;2023-03-23T07:11:46;99767.03;;;12.06;100.00
49055;BME280;35405;52.344;14.530;2023-03-23T07:14:12;99756.56;;;12.17;100.00
49055;BME280;35405;52.344;14.530;2023-03-23T07:16:37;99770.03;;;12.22;100.00
49055;BME280;35405;52.344;14.530;2023-03-23T07:19:03;99764.59;;;12.22;100.00
49055;BME280;35405;52.344;14.530;2023-03-23T07:21:28;99777.25;;;12.18;100.00
49055;BME280;35405;52.344;14.530;2023-03-23T07:23:53;99782.88;;;12.22;100.00
49055;BME280;35405;52.344;14.530;2023-03-23T07:26:18;99778.50;;;12.29;100.00
49055;BME280;35405;52.344;14.530;2023-03-23T07:28:43;99793.91;;;12.34;100.00
49055;BME280;35405;52.344;14.530;2023-03-23T07:31:10;99794.72;;;12.17;100.00
49055;BME280;35405;52.344;14.530;2023-03-23T07:33:48;99794.16;;;11.85;100.00
49055;BME280;35405;52.344;14.530;2023-03-23T07:36:13;99799.88;;;11.58;100.00
49055;BME280;35405;52.344;14.530;2023-03-23T07:38:38;99793.94;;;11.47;100.00
49055;BME280;35405;52.344;14.530;2023-03-23T07:41:04;99802.41;;;11.37;100.00
49055;BME280;35405;52.344;14.530;2023-03-23T07:43:30;99794.53;;;11.09;100.00
49055;BME280;35405;52.344;14.530;2023-03-23T07:45:55;99795.09;;;10.89;100.00
49055;BME280;35405;52.344;14.530;2023-03-23T07:48:21;99787.38;;;10.73;100.00
49055;BME280;35405;52.344;14.530;2023-03-23T07:50:46;99790.16;;;10.51;100.00
49055;BME280;35405;52.344;14.530;2023-03-23T07:53:12;99773.31;;;10.40;100.00
49055;BME280;35405;52.344;14.530;2023-03-23T07:55:37;99761.69;;;10.48;100.00
49055;BME280;35405;52.344;14.530;2023-03-23T07:58:02;99741.09;;;10.65;100.00
49055;BME280;35405;52.344;14.530;2023-03-23T08:00:28;99740.00;;;10.66;100.00
49055;BME280;35405;52.344;14.530;2023-03-23T08:02:55;99737.75;;;10.68;100.00
49055;BME280;35405;52.344;14.530;2023-03-23T08:05:21;99731.41;;;10.81;100.00
49055;BME280;35405;52.344;14.530;2023-03-23T08:07:47;99740.56;;;10.94;100.00
49055;BME280;35405;52.344;14.530;2023-03-23T08:10:13;99735.13;;;11.03;100.00
49055;BME280;35405;52.344;14.530;2023-03-23T08:12:40;99739.78;;;11.02;100.00
49055;BME280;35405;52.344;14.530;2023-03-23T08:15:06;99736.09;;;11.07;100.00
49055;BME280;35405;52.344;14.530;2023-03-23T08:17:32;99732.28;;;11.08;100.00
49055;BME280;35405;52.344;14.530;2023-03-23T08:19:59;99726.38;;;11.32;100.00
49055;BME280;35405;52.344;14.530;2023-03-23T08:22:24;99737.41;;;11.53;100.00
49055;BME280;35405;52.344;14.530;2023-03-23T08:24:49;99745.25;;;11.80;100.00
49055;BME280;35405;52.344;14.530;2023-03-23T08:27:15;99745.72;;;11.91;100.00
49055;BME280;35405;52.344;14.530;2023-03-23T08:29:40;99749.41;;;11.95;100.00
49055;BME280;35405;52.344;14.530;2023-03-23T08:32:05;99756.44;;;12.05;100.00
49055;BME280;35405;52.344;14.530;2023-03-23T08:34:31;99765.41;;;12.14;100.00
49055;BME280;35405;52.344;14.530;2023-03-23T08:36:56;99757.50;;;12.21;100.00
49055;BME280;35405;52.344;14.530;2023-03-23T08:39:21;99760.78;;;11.97;100.00
49055;BME280;35405;52.344;14.530;2023-03-23T08:41:48;99762.72;;;11.79;100.00
49055;BME280;35405;52.344;14.530;2023-03-23T08:44:13;99772.97;;;11.74;100.00
49055;BME280;35405;52.344;14.530;2023-03-23T08:46:39;99772.63;;;11.75;100.00
49055;BME280;35405;52.344;14.530;2023-03-23T08:49:04;99777.94;;;11.80;100.00
49055;BME280;35405;52.344;14.530;2023-03-23T08:51:30;99771.69;;;11.80;100.00
49055;BME280;35405;52.344;14.530;2023-03-23T08:53:56;99771.03;;;11.83;100.00
49055;BME280;35405;52.344;14.530;2023-03-23T08:56:21;99776.97;;;11.94;100.00
49055;BME280;35405;52.344;14.530;2023-03-23T08:58:47;99784.34;;;12.02;100.00
49055;BME280;35405;52.344;14.530;2023-03-23T09:01:12;99779.50;;;12.25;100.00
49055;BME280;35405;52.344;14.530;2023-03-23T09:03:38;99768.16;;;12.52;100.00
49055;BME280;35405;52.344;14.530;2023-03-23T09:06:05;99758.41;;;12.81;100.00
49055;BME280;35405;52.344;14.530;2023-03-23T09:08:30;99748.66;;;13.01;100.00
49055;BME280;35405;52.344;14.530;2023-03-23T09:10:59;99743.16;;;13.10;100.00
49055;BME280;35405;52.344;14.530;2023-03-23T09:13:25;99737.50;;;13.15;100.00
49055;BME280;35405;52.344;14.530;2023-03-23T09:15:51;99752.97;;;13.02;100.00
49055;BME280;35405;52.344;14.530;2023-03-23T09:18:17;99753.06;;;13.14;100.00
49055;BME280;35405;52.344;14.530;2023-03-23T09:20:43;99772.44;;;13.51;100.00
49055;BME280;35405;52.344;14.530;2023-03-23T09:23:08;99785.69;;;13.40;100.00
49055;BME280;35405;52.344;14.530;2023-03-23T09:25:34;99789.22;;;13.41;100.00
49055;BME280;35405;52.344;14.530;2023-03-23T09:27:59;99785.47;;;13.24;100.00
49055;BME280;35405;52.344;14.530;2023-03-23T09:30:28;99796.44;;;13.16;100.00
49055;BME280;35405;52.344;14.530;2023-03-23T09:32:55;99792.03;;;13.23;100.00
49055;BME280;35405;52.344;14.530;2023-03-23T09:35:20;99786.72;;;13.36;100.00
49055;BME280;35405;52.344;14.530;2023-03-23T09:37:49;99773.25;;;13.31;100.00
49055;BME280;35405;52.344;14.530;2023-03-23T09:40:20;99761.84;;;13.29;100.00
49055;BME280;35405;52.344;14.530;2023-03-23T09:50:17;99800.06;;;13.91;100.00
49055;BME280;35405;52.344;14.530;2023-03-23T09:52:56;99801.81;;;13.96;100.00
49055;BME280;35405;52.344;14.530;2023-03-23T09:55:23;99813.50;;;13.84;100.00
49055;BME280;35405;52.344;14.530;2023-03-23T09:57:59;99800.09;;;13.70;100.00
49055;BME280;35405;52.344;14.530;2023-03-23T10:00:32;99804.63;;;13.87;100.00
49055;BME280;35405;52.344;14.530;2023-03-23T10:03:06;99793.88;;;13.82;100.00
49055;BME280;35405;52.344;14.530;2023-03-23T10:05:37;99793.84;;;14.03;100.00
49055;BME280;35405;52.344;14.530;2023-03-23T10:08:17;99784.94;;;14.27;100.00
49055;BME280;35405;52.344;14.530;2023-03-23T10:13:20;99784.69;;;14.66;100.00
49055;BME280;35405;52.344;14.530;2023-03-23T10:15:48;99774.63;;;14.94;100.00
49055;BME280;35405;52.344;14.530;2023-03-23T10:18:18;99775.56;;;15.11;100.00
49055;BME280;35405;52.344;14.530;2023-03-23T10:20:51;99780.47;;;15.05;100.00
49055;BME280;35405;52.344;14.530;2023-03-23T10:28:22;99783.19;;;15.17;100.00
49055;BME280;35405;52.344;14.530;2023-03-23T10:30:53;99800.41;;;15.18;100.00
49055;BME280;35405;52.344;14.530;2023-03-23T10:35:51;99798.53;;;15.59;100.00
49055;BME280;35405;52.344;14.530;2023-03-23T10:38:24;99795.31;;;15.57;100.00
49055;BME280;35405;52.344;14.530;2023-03-23T10:40:55;99790.50;;;15.66;100.00
49055;BME280;35405;52.344;14.530;2023-03-23T10:43:21;99795.81;;;15.87;100.00
49055;BME280;35405;52.344;14.530;2023-03-23T10:45:51;99789.44;;;16.11;100.00
49055;BME280;35405;52.344;14.530;2023-03-23T10:48:33;99780.41;;;15.82;100.00
49055;BME280;35405;52.344;14.530;2023-03-23T10:51:02;99783.06;;;15.78;100.00
49055;BME280;35405;52.344;14.530;2023-03-23T10:53:32;99785.94;;;15.70;100.00
49055;BME280;35405;52.344;14.530;2023-03-23T10:55:58;99781.38;;;15.74;100.00
49055;BME280;35405;52.344;14.530;2023-03-23T10:58:34;99784.44;;;15.72;100.00
49055;BME280;35405;52.344;14.530;2023-03-23T11:01:01;99787.53;;;15.71;100.00
49055;BME280;35405;52.344;14.530;2023-03-23T11:03:29;99787.28;;;15.76;100.00
49055;BME280;35405;52.344;14.530;2023-03-23T11:06:00;99781.56;;;15.81;100.00
49055;BME280;35405;52.344;14.530;2023-03-23T11:08:36;99788.66;;;15.70;100.00
49055;BME280;35405;52.344;14.530;2023-03-23T11:11:10;99785.81;;;15.66;100.00
49055;BME280;35405;52.344;14.530;2023-03-23T11:13:38;99791.19;;;15.63;100.00
49055;BME280;35405;52.344;14.530;2023-03-23T11:16:04;99802.25;;;15.66;100.00
49055;BME280;35405;52.344;14.530;2023-03-23T11:18:37;99806.56;;;15.92;100.00
49055;BME280;35405;52.344;14.530;2023-03-23T11:21:04;99794.22;;;16.14;100.00
49055;BME280;35405;52.344;14.530;2023-03-23T11:23:34;99804.34;;;16.26;100.00
49055;BME280;35405;52.344;14.530;2023-03-23T11:28:34;99784.88;;;16.31;100.00
49055;BME280;35405;52.344;14.530;2023-03-23T11:31:01;99790.25;;;16.27;100.00
49055;BME280;35405;52.344;14.530;2023-03-23T11:33:35;99796.81;;;16.38;100.00
49055;BME280;35405;52.344;14.530;2023-03-23T11:36:00;99800.56;;;16.62;100.00
49055;BME280;35405;52.344;14.530;2023-03-23T11:38:25;99787.97;;;16.45;100.00
49055;BME280;35405;52.344;14.530;2023-03-23T11:40:52;99790.91;;;16.52;100.00
49055;BME280;35405;52.344;14.530;2023-03-23T11:43:24;99794.31;;;16.33;100.00
49055;BME280;35405;52.344;14.530;2023-03-23T11:45:58;99796.81;;;16.22;100.00
49055;BME280;35405;52.344;14.530;2023-03-23T11:48:28;99794.50;;;16.25;100.00
49055;BME280;35405;52.344;14.530;2023-03-23T11:51:16;99786.63;;;16.23;100.00
49055;BME280;35405;52.344;14.530;2023-03-23T11:56:13;99792.78;;;16.04;100.00
49055;BME280;35405;52.344;14.530;2023-03-23T11:58:40;99805.38;;;16.21;100.00
49055;BME280;35405;52.344;14.530;2023-03-23T12:01:10;99794.66;;;16.16;100.00
49055;BME280;35405;52.344;14.530;2023-03-23T12:06:07;99792.41;;;16.06;100.00
49055;BME280;35405;52.344;14.530;2023-03-23T12:08:48;99798.75;;;15.94;100.00
49055;BME280;35405;52.344;14.530;2023-03-23T12:21:43;99800.91;;;16.44;100.00
49055;BME280;35405;52.344;14.530;2023-03-23T12:26:56;99808.25;;;16.56;100.00
49055;BME280;35405;52.344;14.530;2023-03-23T12:39:57;99800.31;;;16.83;100.00
49055;BME280;35405;52.344;14.530;2023-03-23T12:44:58;99804.00;;;16.75;100.00
49055;BME280;35405;52.344;14.530;2023-03-23T12:47:48;99809.34;;;16.67;100.00
49055;BME280;35405;52.344;14.530;2023-03-23T12:50:38;99801.75;;;16.77;100.00
49055;BME280;35405;52.344;14.530;2023-03-23T12:53:17;99794.66;;;16.76;100.00
49055;BME280;35405;52.344;14.530;2023-03-23T12:55:47;99795.69;;;16.71;100.00
49055;BME280;35405;52.344;14.530;2023-03-23T12:58:21;99785.34;;;16.64;100.00
49055;BME280;35405;52.344;14.530;2023-03-23T13:03:33;99795.63;;;16.52;100.00
49055;BME280;35405;52.344;14.530;2023-03-23T13:06:03;99792.94;;;16.55;100.00
49055;BME280;35405;52.344;14.530;2023-03-23T13:11:16;99790.28;;;16.59;100.00
49055;BME280;35405;52.344;14.530;2023-03-23T13:13:51;99792.03;;;16.51;100.00
49055;BME280;35405;52.344;14.530;2023-03-23T13:16:20;99797.44;;;16.48;100.00
49055;BME280;35405;52.344;14.530;2023-03-23T13:21:31;99795.31;;;16.73;100.00
49055;BME280;35405;52.344;14.530;2023-03-23T13:24:08;99798.63;;;16.78;100.00
49055;BME280;35405;52.344;14.530;2023-03-23T13:26:40;99790.66;;;16.73;100.00
49055;BME280;35405;52.344;14.530;2023-03-23T13:29:15;99789.50;;;16.74;100.00
49055;BME280;35405;52.344;14.530;2023-03-23T13:31:43;99792.22;;;16.42;100.00
49055;BME280;35405;52.344;14.530;2023-03-23T13:36:51;99782.56;;;16.33;100.00
49055;BME280;35405;52.344;14.530;2023-03-23T13:39:21;99774.16;;;16.41;100.00
49055;BME280;35405;52.344;14.530;2023-03-23T13:44:43;99749.47;;;16.41;100.00
49055;BME280;35405;52.344;14.530;2023-03-23T13:49:45;99783.06;;;16.07;100.00
49055;BME280;35405;52.344;14.530;2023-03-23T13:52:15;99772.81;;;15.91;100.00
49055;BME280;35405;52.344;14.530;2023-03-23T13:54:42;99763.56;;;15.68;100.00
49055;BME280;35405;52.344;14.530;2023-03-23T13:59:58;99777.22;;;15.80;100.00
49055;BME280;35405;52.344;14.530;2023-03-23T14:02:28;99774.88;;;15.94;100.00
49055;BME280;35405;52.344;14.530;2023-03-23T14:04:55;99775.53;;;15.75;100.00
49055;BME280;35405;52.344;14.530;2023-03-23T14:07:20;99765.06;;;15.53;100.00
49055;BME280;35405;52.344;14.530;2023-03-23T14:09:46;99767.50;;;15.42;100.00
49055;BME280;35405;52.344;14.530;2023-03-23T14:12:22;99772.63;;;15.44;100.00
49055;BME280;35405;52.344;14.530;2023-03-23T14:14:51;99766.09;;;15.48;100.00
49055;BME280;35405;52.344;14.530;2023-03-23T14:20:23;99757.75;;;15.57;100.00
49055;BME280;35405;52.344;14.530;2023-03-23T14:22:52;99757.19;;;15.92;100.00
49055;BME280;35405;52.344;14.530;2023-03-23T14:25:18;99760.69;;;15.76;100.00
49055;BME280;35405;52.344;14.530;2023-03-23T14:27:45;99755.19;;;15.64;100.00
49055;BME280;35405;52.344;14.530;2023-03-23T14:32:39;99767.38;;;15.79;100.00
49055;BME280;35405;52.344;14.530;2023-03-23T14:35:06;99777.13;;;15.76;100.00
49055;BME280;35405;52.344;14.530;2023-03-23T14:37:33;99776.78;;;15.66;100.00
49055;BME280;35405;52.344;14.530;2023-03-23T14:40:00;99785.59;;;15.71;100.00
49055;BME280;35405;52.344;14.530;2023-03-23T14:42:29;99785.31;;;15.89;100.00
49055;BME280;35405;52.344;14.530;2023-03-23T14:44:55;99775.97;;;16.06;100.00
49055;BME280;35405;52.344;14.530;2023-03-23T14:47:22;99770.06;;;16.19;100.00
49055;BME280;35405;52.344;14.530;2023-03-23T14:49:52;99769.44;;;16.26;100.00
49055;BME280;35405;52.344;14.530;2023-03-23T14:52:18;99775.91;;;16.18;100.00
49055;BME280;35405;52.344;14.530;2023-03-23T14:54:44;99764.59;;;15.91;100.00
49055;BME280;35405;52.344;14.530;2023-03-23T14:57:16;99775.63;;;15.79;100.00
49055;BME280;35405;52.344;14.530;2023-03-23T14:59:42;99768.78;;;15.73;100.00
49055;BME280;35405;52.344;14.530;2023-03-23T15:02:16;99782.97;;;15.75;100.00
49055;BME280;35405;52.344;14.530;2023-03-23T15:04:43;99771.84;;;15.84;100.00
49055;BME280;35405;52.344;14.530;2023-03-23T15:07:10;99775.53;;;16.04;100.00
49055;BME280;35405;52.344;14.530;2023-03-23T15:09:38;99767.72;;;16.06;100.00
49055;BME280;35405;52.344;14.530;2023-03-23T15:12:05;99779.41;;;15.74;100.00
49055;BME280;35405;52.344;14.530;2023-03-23T15:14:31;99770.66;;;15.57;100.00
49055;BME280;35405;52.344;14.530;2023-03-23T15:16:59;99773.28;;;15.53;100.00
49055;BME280;35405;52.344;14.530;2023-03-23T15:19:34;99773.84;;;15.59;100.00
49055;BME280;35405;52.344;14.530;2023-03-23T15:22:05;99778.63;;;15.74;100.00
49055;BME280;35405;52.344;14.530;2023-03-23T15:24:36;99773.84;;;15.59;100.00
49055;BME280;35405;52.344;14.530;2023-03-23T15:27:12;99776.16;;;15.44;100.00
49055;BME280;35405;52.344;14.530;2023-03-23T15:29:51;99777.19;;;15.40;100.00
49055;BME280;35405;52.344;14.530;2023-03-23T15:32:20;99775.47;;;15.47;100.00
49055;BME280;35405;52.344;14.530;2023-03-23T15:34:46;99779.03;;;15.36;100.00
49055;BME280;35405;52.344;14.530;2023-03-23T15:37:25;99772.34;;;15.21;100.00
49055;BME280;35405;52.344;14.530;2023-03-23T15:39:51;99781.72;;;15.07;100.00
49055;BME280;35405;52.344;14.530;2023-03-23T15:42:21;99778.06;;;15.03;100.00
49055;BME280;35405;52.344;14.530;2023-03-23T15:44:54;99779.88;;;15.12;100.00
49055;BME280;35405;52.344;14.530;2023-03-23T15:47:20;99778.41;;;15.14;100.00
49055;BME280;35405;52.344;14.530;2023-03-23T15:49:46;99791.53;;;15.08;100.00
49055;BME280;35405;52.344;14.530;2023-03-23T15:52:13;99793.59;;;14.99;100.00
49055;BME280;35405;52.344;14.530;2023-03-23T15:54:38;99787.31;;;14.99;100.00
49055;BME280;35405;52.344;14.530;2023-03-23T15:57:04;99787.88;;;14.92;100.00
49055;BME280;35405;52.344;14.530;2023-03-23T15:59:29;99774.84;;;14.89;100.00
49055;BME280;35405;52.344;14.530;2023-03-23T16:01:54;99781.47;;;14.88;100.00
49055;BME280;35405;52.344;14.530;2023-03-23T16:04:20;99785.69;;;14.85;100.00
49055;BME280;35405;52.344;14.530;2023-03-23T16:06:45;99789.13;;;14.82;100.00
49055;BME280;35405;52.344;14.530;2023-03-23T16:09:15;99777.06;;;14.83;100.00
49055;BME280;35405;52.344;14.530;2023-03-23T16:11:40;99772.25;;;14.80;100.00
49055;BME280;35405;52.344;14.530;2023-03-23T16:14:06;99777.72;;;14.68;100.00
49055;BME280;35405;52.344;14.530;2023-03-23T16:16:41;99788.44;;;14.61;100.00
49055;BME280;35405;52.344;14.530;2023-03-23T16:19:07;99779.91;;;14.62;100.00
49055;BME280;35405;52.344;14.530;2023-03-23T16:21:35;99779.91;;;14.62;100.00
49055;BME280;35405;52.344;14.530;2023-03-23T16:24:00;99790.94;;;14.54;100.00
49055;BME280;35405;52.344;14.530;2023-03-23T16:26:25;99787.56;;;14.36;100.00
49055;BME280;35405;52.344;14.530;2023-03-23T16:28:50;99802.34;;;14.23;100.00
49055;BME280;35405;52.344;14.530;2023-03-23T16:31:16;99805.53;;;14.25;100.00
49055;BME280;35405;52.344;14.530;2023-03-23T16:33:41;99813.19;;;14.31;100.00
49055;BME280;35405;52.344;14.530;2023-03-23T16:36:15;99817.53;;;14.32;100.00
49055;BME280;35405;52.344;14.530;2023-03-23T16:38:40;99821.06;;;14.33;100.00
49055;BME280;35405;52.344;14.530;2023-03-23T16:41:06;99842.28;;;14.36;100.00
49055;BME280;35405;52.344;14.530;2023-03-23T16:43:32;99839.63;;;14.27;100.00
49055;BME280;35405;52.344;14.530;2023-03-23T16:45:57;99843.81;;;14.25;100.00
49055;BME280;35405;52.344;14.530;2023-03-23T16:48:22;99838.91;;;14.18;100.00
49055;BME280;35405;52.344;14.530;2023-03-23T16:50:48;99832.31;;;13.98;100.00
49055;BME280;35405;52.344;14.530;2023-03-23T16:53:13;99818.59;;;13.86;100.00
49055;BME280;35405;52.344;14.530;2023-03-23T16:55:39;99827.53;;;13.74;100.00
49055;BME280;35405;52.344;14.530;2023-03-23T16:58:04;99818.81;;;13.60;100.00
49055;BME280;35405;52.344;14.530;2023-03-23T17:00:30;99813.28;;;13.47;100.00
49055;BME280;35405;52.344;14.530;2023-03-23T17:02:55;99816.59;;;13.32;100.00
49055;BME280;35405;52.344;14.530;2023-03-23T17:05:25;99828.53;;;13.19;100.00
49055;BME280;35405;52.344;14.530;2023-03-23T17:07:50;99842.84;;;13.16;100.00
49055;BME280;35405;52.344;14.530;2023-03-23T17:10:16;99842.88;;;13.07;100.00
49055;BME280;35405;52.344;14.530;2023-03-23T17:12:41;99840.53;;;12.97;100.00
49055;BME280;35405;52.344;14.530;2023-03-23T17:15:07;99849.06;;;12.87;100.00
49055;BME280;35405;52.344;14.530;2023-03-23T17:17:33;99850.72;;;12.79;100.00
49055;BME280;35405;52.344;14.530;2023-03-23T17:19:58;99848.97;;;12.74;100.00
49055;BME280;35405;52.344;14.530;2023-03-23T17:22:24;99860.03;;;12.69;100.00
49055;BME280;35405;52.344;14.530;2023-03-23T17:24:49;99872.44;;;12.58;100.00
49055;BME280;35405;52.344;14.530;2023-03-23T17:27:15;99876.63;;;12.47;100.00
49055;BME280;35405;52.344;14.530;2023-03-23T17:29:41;99884.53;;;12.40;100.00
49055;BME280;35405;52.344;14.530;2023-03-23T17:32:07;99877.16;;;12.31;100.00
49055;BME280;35405;52.344;14.530;2023-03-23T17:34:32;99868.03;;;12.19;100.00
49055;BME280;35405;52.344;14.530;2023-03-23T17:36:57;99883.59;;;12.09;100.00
49055;BME280;35405;52.344;14.530;2023-03-23T17:39:22;99889.34;;;12.08;100.00
49055;BME280;35405;52.344;14.530;2023-03-23T17:41:48;99892.88;;;12.00;100.00
49055;BME280;35405;52.344;14.530;2023-03-23T17:44:13;99891.41;;;11.94;100.00
49055;BME280;35405;52.344;14.530;2023-03-23T17:46:41;99887.75;;;11.89;100.00
49055;BME280;35405;52.344;14.530;2023-03-23T17:49:06;99881.63;;;11.84;100.00
49055;BME280;35405;52.344;14.530;2023-03-23T17:51:32;99867.34;;;11.78;100.00
49055;BME280;35405;52.344;14.530;2023-03-23T17:53:57;99865.59;;;11.82;100.00
49055;BME280;35405;52.344;14.530;2023-03-23T17:56:23;99867.34;;;11.78;100.00
49055;BME280;35405;52.344;14.530;2023-03-23T17:58:49;99864.16;;;11.67;100.00
49055;BME280;35405;52.344;14.530;2023-03-23T18:01:14;99857.25;;;11.61;100.00
49055;BME280;35405;52.344;14.530;2023-03-23T18:03:39;99867.00;;;11.54;100.00
49055;BME280;35405;52.344;14.530;2023-03-23T18:06:06;99893.06;;;11.46;100.00
49055;BME280;35405;52.344;14.530;2023-03-23T18:08:34;99877.53;;;11.38;100.00
49055;BME280;35405;52.344;14.530;2023-03-23T18:11:00;99877.84;;;11.36;100.00
49055;BME280;35405;52.344;14.530;2023-03-23T18:13:27;99893.09;;;11.37;100.00
49055;BME280;35405;52.344;14.530;2023-03-23T18:15:53;99889.06;;;11.35;100.00
49055;BME280;35405;52.344;14.530;2023-03-23T18:18:18;99887.28;;;11.30;100.00
49055;BME280;35405;52.344;14.530;2023-03-23T18:20:43;99885.03;;;11.24;100.00
49055;BME280;35405;52.344;14.530;2023-03-23T18:23:09;99878.28;;;11.21;100.00
49055;BME280;35405;52.344;14.530;2023-03-23T18:25:35;99877.97;;;11.23;100.00
49055;BME280;35405;52.344;14.530;2023-03-23T18:28:00;99872.34;;;11.19;100.00
49055;BME280;35405;52.344;14.530;2023-03-23T18:30:25;99872.50;;;11.14;100.00
49055;BME280;35405;52.344;14.530;2023-03-23T18:32:51;99867.19;;;11.09;100.00
49055;BME280;35405;52.344;14.530;2023-03-23T18:35:17;99873.28;;;11.06;100.00
49055;BME280;35405;52.344;14.530;2023-03-23T18:37:42;99864.81;;;11.07;100.00
49055;BME280;35405;52.344;14.530;2023-03-23T18:40:08;99872.66;;;11.09;100.00
49055;BME280;35405;52.344;14.530;2023-03-23T18:42:37;99865.91;;;11.06;100.00
49055;BME280;35405;52.344;14.530;2023-03-23T18:45:02;99873.59;;;11.04;100.00
49055;BME280;35405;52.344;14.530;2023-03-23T18:47:28;99878.22;;;11.04;100.00
49055;BME280;35405;52.344;14.530;2023-03-23T18:49:53;99879.13;;;10.90;100.00
49055;BME280;35405;52.344;14.530;2023-03-23T18:52:23;99878.63;;;10.88;100.00
49055;BME280;35405;52.344;14.530;2023-03-23T18:54:50;99891.94;;;10.90;100.00
49055;BME280;35405;52.344;14.530;2023-03-23T18:57:17;99900.72;;;10.87;100.00
49055;BME280;35405;52.344;14.530;2023-03-23T18:59:45;99914.16;;;10.92;100.00
49055;BME280;35405;52.344;14.530;2023-03-23T19:02:10;99921.75;;;11.04;100.00
49055;BME280;35405;52.344;14.530;2023-03-23T19:04:37;99921.66;;;11.17;100.00
49055;BME280;35405;52.344;14.530;2023-03-23T19:07:03;99927.19;;;11.35;100.00
49055;BME280;35405;52.344;14.530;2023-03-23T19:09:28;99932.19;;;11.50;100.00
49055;BME280;35405;52.344;14.530;2023-03-23T19:12:10;99920.19;;;11.60;100.00
49055;BME280;35405;52.344;14.530;2023-03-23T19:14:36;99918.13;;;11.65;100.00
49055;BME280;35405;52.344;14.530;2023-03-23T19:17:01;99917.16;;;11.70;100.00
49055;BME280;35405;52.344;14.530;2023-03-23T19:19:27;99914.63;;;11.74;100.00
49055;BME280;35405;52.344;14.530;2023-03-23T19:21:52;99917.34;;;11.74;100.00
49055;BME280;35405;52.344;14.530;2023-03-23T19:24:17;99902.59;;;11.75;100.00
49055;BME280;35405;52.344;14.530;2023-03-23T19:26:43;99906.91;;;11.76;100.00
49055;BME280;35405;52.344;14.530;2023-03-23T19:29:10;99908.53;;;11.77;100.00
49055;BME280;35405;52.344;14.530;2023-03-23T19:31:35;99916.88;;;11.80;100.00
49055;BME280;35405;52.344;14.530;2023-03-23T19:34:01;99913.34;;;11.80;100.00
49055;BME280;35405;52.344;14.530;2023-03-23T19:36:26;99924.25;;;11.80;100.00
49055;BME280;35405;52.344;14.530;2023-03-23T19:38:52;99919.47;;;11.85;100.00
49055;BME280;35405;52.344;14.530;2023-03-23T19:41:18;99926.69;;;11.90;100.00
49055;BME280;35405;52.344;14.530;2023-03-23T19:43:44;99925.88;;;11.89;100.00
49055;BME280;35405;52.344;14.530;2023-03-23T19:46:09;99928.47;;;11.86;100.00
49055;BME280;35405;52.344;14.530;2023-03-23T19:48:35;99929.56;;;11.85;100.00
49055;BME280;35405;52.344;14.530;2023-03-23T19:51:01;99920.56;;;11.84;100.00
49055;BME280;35405;52.344;14.530;2023-03-23T19:53:27;99923.28;;;11.84;100.00
49055;BME280;35405;52.344;14.530;2023-03-23T19:55:52;99940.44;;;11.85;100.00
49055;BME280;35405;52.344;14.530;2023-03-23T19:58:17;99947.81;;;11.84;100.00
49055;BME280;35405;52.344;14.530;2023-03-23T20:00:43;99956.50;;;11.86;100.00
49055;BME280;35405;52.344;14.530;2023-03-23T20:03:08;99960.50;;;11.89;100.00
49055;BME280;35405;52.344;14.530;2023-03-23T20:05:34;99976.06;;;11.88;100.00
49055;BME280;35405;52.344;14.530;2023-03-23T20:07:59;99953.94;;;11.90;100.00
49055;BME280;35405;52.344;14.530;2023-03-23T20:10:25;99954.91;;;11.85;100.00
49055;BME280;35405;52.344;14.530;2023-03-23T20:12:50;99957.41;;;11.82;100.00